Time;durP1;ratioP1;P1;durP2;ratioP2;P2;SDS_P1;SDS_P2;PMS_P1;PMS_P2;Temp;Humidity;BMP_temperature;BMP_pressure;BME280_temperature;BME280_humidity;BME280_pressure;Samples;Min_cycle;Max_cycle;Signal;HPM_P1;HPM_P2
2023/06/18 00:00:38;;;;;;;10.88;5.75;;;;;;;14.45;100.00;98519.94;5014678;28;20095;-57
2023/06/18 00:03:04;;;;;;;11.38;6.88;;;;;;;14.43;100.00;98522.91;5058733;23;20494;-71
2023/06/18 00:05:29;;;;;;;8.77;5.75;;;;;;;14.41;100.00;98518.78;5045306;28;20044;-71
2023/06/18 00:07:54;;;;;;;7.85;5.50;;;;;;;14.38;100.00;98522.81;5041407;28;20071;-71
2023/06/18 00:10:20;;;;;;;7.97;5.80;;;;;;;14.41;100.00;98525.03;5053278;28;20029;-71
2023/06/18 00:12:45;;;;;;;10.02;5.47;;;;;;;14.46;100.00;98527.03;5054044;28;20028;-71
2023/06/18 00:15:10;;;;;;;9.73;5.95;;;;;;;14.42;100.00;98537.59;5037469;28;20104;-71
2023/06/18 00:17:36;;;;;;;10.73;6.47;;;;;;;14.45;100.00;98525.41;5052395;28;20041;-71
2023/06/18 00:20:01;;;;;;;8.63;6.15;;;;;;;14.42;100.00;98529.41;5054596;28;20111;-71
2023/06/18 00:22:26;;;;;;;13.23;6.47;;;;;;;14.41;100.00;98535.09;5028365;28;20100;-71
2023/06/18 00:24:52;;;;;;;9.52;6.40;;;;;;;14.41;100.00;98526.94;5053078;28;20319;-71
2023/06/18 00:27:17;;;;;;;10.50;6.85;;;;;;;14.26;100.00;98511.06;5053345;28;20024;-71
2023/06/18 00:29:46;;;;;;;9.45;6.40;;;;;;;14.23;100.00;98525.97;5054192;28;20052;-71
2023/06/18 00:32:12;;;;;;;10.48;7.18;;;;;;;14.25;100.00;98523.00;5053518;28;20442;-70
2023/06/18 00:34:37;;;;;;;15.13;7.93;;;;;;;14.25;100.00;98518.41;5051162;28;20068;-71
2023/06/18 00:37:09;;;;;;;15.82;6.68;;;;;;;14.13;100.00;98522.16;5044041;28;20120;-71
2023/06/18 00:39:34;;;;;;;10.20;6.55;;;;;;;13.98;100.00;98526.13;5046864;28;20036;-71
2023/06/18 00:42:00;;;;;;;11.43;6.65;;;;;;;13.96;100.00;98521.97;5052898;28;20021;-70
2023/06/18 00:44:25;;;;;;;8.77;6.18;;;;;;;13.84;100.00;98515.69;5054670;28;20107;-71
2023/06/18 00:46:51;;;;;;;8.45;5.45;;;;;;;13.80;100.00;98527.00;5053241;28;20020;-71
2023/06/18 00:49:18;;;;;;;8.40;5.90;;;;;;;13.76;100.00;98512.22;5051841;28;20036;-71
2023/06/18 00:51:45;;;;;;;9.57;5.82;;;;;;;13.66;100.00;98509.25;5044623;28;20040;-71
2023/06/18 00:54:13;;;;;;;9.35;5.55;;;;;;;13.59;100.00;98516.66;5052964;28;20367;-71
2023/06/18 00:56:50;;;;;;;9.07;5.95;;;;;;;13.57;100.00;98497.00;5052237;28;20564;-70
2023/06/18 00:59:22;;;;;;;8.20;5.30;;;;;;;13.71;100.00;98505.84;5053042;28;20048;-71
2023/06/18 01:01:55;;;;;;;9.70;6.38;;;;;;;13.67;100.00;98502.72;5032697;28;20048;-71
2023/06/18 01:04:25;;;;;;;9.52;6.18;;;;;;;13.66;100.00;98506.53;5052641;28;20090;-71
2023/06/18 01:06:52;;;;;;;12.15;6.65;;;;;;;13.73;100.00;98501.00;5049100;28;20021;-71
2023/06/18 01:09:22;;;;;;;10.27;6.68;;;;;;;13.49;100.00;98495.47;5052765;28;20100;-71
2023/06/18 01:11:52;;;;;;;9.68;6.60;;;;;;;13.40;100.00;98494.13;5047686;28;20024;-71
2023/06/18 01:14:23;;;;;;;11.07;6.20;;;;;;;13.44;100.00;98506.19;5034886;28;20112;-71
2023/06/18 01:16:54;;;;;;;10.23;6.40;;;;;;;13.35;100.00;98497.50;5049791;28;20128;-71
2023/06/18 01:19:46;;;;;;;9.40;6.80;;;;;;;13.26;100.00;98507.06;5053440;28;20016;-71
2023/06/18 01:22:53;;;;;;;10.48;6.75;;;;;;;13.28;100.00;98499.50;5050722;28;20059;-71
2023/06/18 01:25:20;;;;;;;10.27;6.65;;;;;;;13.18;100.00;98498.31;5040851;28;20025;-70
2023/06/18 01:27:47;;;;;;;11.30;6.55;;;;;;;13.10;100.00;98502.22;5047637;28;20033;-71
2023/06/18 01:30:14;;;;;;;11.45;6.55;;;;;;;13.02;100.00;98505.19;5048667;28;20033;-71
2023/06/18 01:32:39;;;;;;;12.65;7.70;;;;;;;12.88;100.00;98518.09;5047501;28;20483;-71
2023/06/18 01:35:06;;;;;;;14.40;8.05;;;;;;;12.81;100.00;98518.19;5034741;28;20039;-71
2023/06/18 01:38:02;;;;;;;14.70;6.97;;;;;;;12.80;100.00;98516.50;5033040;28;20033;-71
2023/06/18 01:40:34;;;;;;;10.48;6.95;;;;;;;12.77;100.00;98511.53;5047269;28;20029;-71
2023/06/18 01:43:21;;;;;;;10.65;6.80;;;;;;;12.83;100.00;98516.06;5049227;28;20025;-71
2023/06/18 01:45:52;;;;;;;12.38;6.97;;;;;;;12.83;100.00;98512.50;5047866;28;20427;-71
2023/06/18 01:48:21;;;;;;;10.60;7.07;;;;;;;12.75;100.00;98520.97;5051257;28;20064;-71
2023/06/18 01:50:48;;;;;;;12.38;7.25;;;;;;;12.71;100.00;98509.72;5046411;28;20040;-71
2023/06/18 01:53:16;;;;;;;9.15;6.60;;;;;;;12.72;100.00;98506.78;5052754;28;20474;-71
2023/06/18 01:55:44;;;;;;;10.30;6.90;;;;;;;12.67;100.00;98497.66;5050189;28;20048;-71
2023/06/18 01:58:10;;;;;;;9.52;6.60;;;;;;;12.62;100.00;98506.47;5049064;28;20021;-71
2023/06/18 02:00:35;;;;;;;10.40;6.55;;;;;;;12.63;100.00;98507.31;5051441;28;20052;-71
2023/06/18 02:03:00;;;;;;;10.32;7.40;;;;;;;12.58;100.00;98504.44;5033880;28;20116;-71
2023/06/18 02:05:25;;;;;;;10.55;6.75;;;;;;;12.45;100.00;98506.22;5052717;28;20032;-71
2023/06/18 02:07:51;;;;;;;10.80;6.95;;;;;;;12.38;100.00;98516.28;5031185;28;20025;-71
2023/06/18 02:10:16;;;;;;;12.07;7.57;;;;;;;12.33;100.00;98518.00;5051700;28;20062;-71
2023/06/18 02:12:41;;;;;;;13.40;7.45;;;;;;;12.25;100.00;98511.81;5034532;28;20081;-71
2023/06/18 02:15:07;;;;;;;10.30;7.22;;;;;;;12.24;100.00;98509.31;5060389;28;20021;-70
2023/06/18 02:17:32;;;;;;;11.88;7.32;;;;;;;12.36;100.00;98521.09;5060530;28;20119;-71
2023/06/18 02:19:58;;;;;;;10.70;6.75;;;;;;;12.36;100.00;98520.28;5046959;28;20539;-71
2023/06/18 02:22:24;;;;;;;11.68;6.72;;;;;;;12.26;100.00;98518.03;5033144;28;20029;-71
2023/06/18 02:24:49;;;;;;;12.60;7.43;;;;;;;12.17;100.00;98525.63;5050993;28;20052;-71
2023/06/18 02:27:14;;;;;;;11.13;7.55;;;;;;;12.09;100.00;98516.94;5050702;28;20052;-71
2023/06/18 02:29:41;;;;;;;10.77;7.00;;;;;;;12.09;100.00;98523.19;5051854;28;20096;-71
2023/06/18 02:32:06;;;;;;;10.95;7.07;;;;;;;12.12;100.00;98530.88;5033543;28;20049;-71
2023/06/18 02:34:32;;;;;;;11.93;7.40;;;;;;;12.23;100.00;98518.50;5052461;28;20440;-71
2023/06/18 02:36:57;;;;;;;11.57;6.93;;;;;;;12.16;100.00;98506.91;5049949;28;20456;-70
2023/06/18 02:39:22;;;;;;;9.23;6.60;;;;;;;12.23;100.00;98510.34;5045981;28;20028;-71
2023/06/18 02:41:47;;;;;;;12.07;6.93;;;;;;;12.25;100.00;98506.38;5034592;28;20445;-71
2023/06/18 02:44:13;;;;;;;10.80;6.93;;;;;;;12.34;100.00;98516.94;5046383;28;20051;-71
2023/06/18 02:46:38;;;;;;;9.48;6.30;;;;;;;12.30;100.00;98513.03;5048495;28;20108;-71
2023/06/18 02:49:03;;;;;;;9.93;6.63;;;;;;;12.25;100.00;98516.41;5052952;28;20029;-70
2023/06/18 02:51:29;;;;;;;10.63;6.45;;;;;;;12.15;100.00;98518.78;5054109;28;20021;-71
2023/06/18 02:53:54;;;;;;;13.50;7.13;;;;;;;12.11;100.00;98512.16;5051801;28;20108;-71
2023/06/18 02:56:21;;;;;;;13.52;6.95;;;;;;;12.10;100.00;98514.00;5048670;28;20055;-70
2023/06/18 02:58:51;;;;;;;12.55;7.50;;;;;;;12.14;100.00;98517.13;5025008;28;20063;-71
2023/06/18 03:01:19;;;;;;;10.30;6.90;;;;;;;12.22;100.00;98519.56;5031028;28;20024;-71
2023/06/18 03:03:44;;;;;;;9.60;6.45;;;;;;;12.16;100.00;98512.31;5043574;28;20025;-71
2023/06/18 03:06:09;;;;;;;9.35;6.80;;;;;;;12.07;100.00;98517.97;5052297;28;20036;-70
2023/06/18 03:08:35;;;;;;;10.50;6.47;;;;;;;12.07;100.00;98523.41;5033796;28;20482;-71
2023/06/18 03:11:00;;;;;;;11.80;7.10;;;;;;;12.13;100.00;98534.44;5048027;28;20024;-71
2023/06/18 03:13:26;;;;;;;11.95;7.05;;;;;;;12.09;100.00;98535.94;5049398;28;20364;-71
2023/06/18 03:15:51;;;;;;;8.88;6.55;;;;;;;12.05;100.00;98521.97;5045318;28;20035;-71
2023/06/18 03:18:16;;;;;;;11.32;6.88;;;;;;;12.12;100.00;98539.03;5050893;28;20021;-70
2023/06/18 03:20:42;;;;;;;10.32;6.30;;;;;;;12.02;100.00;98534.06;5032967;28;20033;-71
2023/06/18 03:23:08;;;;;;;10.93;7.03;;;;;;;11.94;100.00;98530.81;5051647;28;20395;-71
2023/06/18 03:25:33;;;;;;;11.95;6.63;;;;;;;11.89;100.00;98531.47;5050104;28;20030;-71
2023/06/18 03:27:58;;;;;;;10.77;7.18;;;;;;;11.88;100.00;98534.41;5048153;28;20029;-71
2023/06/18 03:30:23;;;;;;;8.05;6.30;;;;;;;11.86;100.00;98526.47;5050475;28;20483;-71
2023/06/18 03:32:49;;;;;;;13.13;7.35;;;;;;;11.88;100.00;98532.53;5054252;28;20487;-71
2023/06/18 03:35:14;;;;;;;12.43;8.10;;;;;;;11.90;100.00;98533.13;5053921;28;20021;-71
2023/06/18 03:37:42;;;;;;;10.70;7.00;;;;;;;11.94;100.00;98537.06;5052642;28;20035;-71
2023/06/18 03:40:07;;;;;;;10.40;7.20;;;;;;;11.99;100.00;98537.22;5032690;28;20430;-72
2023/06/18 03:42:33;;;;;;;9.32;6.78;;;;;;;11.96;100.00;98537.69;5052072;28;20035;-71
2023/06/18 03:44:58;;;;;;;11.57;7.40;;;;;;;12.04;100.00;98542.00;5054232;28;20021;-72
2023/06/18 03:47:23;;;;;;;14.73;7.15;;;;;;;12.05;100.00;98546.38;5059604;28;20021;-70
2023/06/18 03:49:49;;;;;;;9.80;6.95;;;;;;;11.97;100.00;98525.81;5068972;28;20067;-71
2023/06/18 03:52:14;;;;;;;12.32;7.32;;;;;;;12.19;100.00;98549.84;5077012;28;20025;-71
2023/06/18 03:54:40;;;;;;;12.20;7.60;;;;;;;12.27;100.00;98549.56;5058521;28;20033;-72
2023/06/18 03:57:05;;;;;;;12.23;7.68;;;;;;;12.36;100.00;98542.78;5040436;28;20017;-71
2023/06/18 03:59:31;;;;;;;14.68;7.35;;;;;;;12.40;100.00;98544.03;5071838;28;20025;-75
2023/06/18 04:01:56;;;;;;;12.30;7.18;;;;;;;12.49;100.00;98544.56;5050161;28;20642;-76
2023/06/18 04:04:23;;;;;;;10.45;7.25;;;;;;;12.57;100.00;98543.47;5072417;28;20091;-77
2023/06/18 04:06:48;;;;;;;11.95;7.43;;;;;;;12.57;100.00;98528.00;5056653;28;20032;-74
2023/06/18 04:09:14;;;;;;;13.10;7.40;;;;;;;12.65;100.00;98535.03;5059693;28;20096;-77
2023/06/18 04:11:40;;;;;;;13.98;8.45;;;;;;;12.71;100.00;98521.41;5053197;28;20036;-79
2023/06/18 04:14:06;;;;;;;11.20;7.68;;;;;;;12.67;100.00;98516.66;5034483;28;20017;-78
2023/06/18 04:16:31;;;;;;;15.60;8.05;;;;;;;12.69;100.00;98539.81;5034386;28;20032;-76
2023/06/18 04:18:57;;;;;;;13.88;7.70;;;;;;;12.75;100.00;98529.94;5053032;28;20032;-75
2023/06/18 04:21:22;;;;;;;12.02;8.18;;;;;;;12.83;100.00;98534.25;5047851;28;20025;-75
2023/06/18 04:23:47;;;;;;;12.38;8.43;;;;;;;12.98;100.00;98540.13;5042653;28;20379;-76
2023/06/18 04:26:12;;;;;;;12.02;7.72;;;;;;;13.00;100.00;98523.63;5040569;28;20086;-77
2023/06/18 04:28:38;;;;;;;10.68;7.60;;;;;;;13.16;100.00;98534.72;5056078;28;20115;-75
2023/06/18 04:31:03;;;;;;;14.32;8.07;;;;;;;13.24;100.00;98530.03;5052693;28;20028;-75
2023/06/18 04:33:28;;;;;;;10.60;7.55;;;;;;;13.33;100.00;98529.50;5048654;28;20484;-73
2023/06/18 04:35:54;;;;;;;10.60;7.03;;;;;;;13.61;100.00;98539.00;5048920;28;20036;-74
2023/06/18 04:38:21;;;;;;;14.65;7.70;;;;;;;13.84;100.00;98541.00;5036302;28;20017;-73
2023/06/18 04:40:47;;;;;;;10.30;7.57;;;;;;;14.08;100.00;98533.72;5056411;28;20017;-74
2023/06/18 04:43:14;;;;;;;11.48;7.50;;;;;;;14.23;100.00;98523.25;5063048;28;20094;-75
2023/06/18 04:45:39;;;;;;;9.50;6.88;;;;;;;14.53;100.00;98514.19;5052600;28;20017;-73
2023/06/18 04:48:04;;;;;;;12.40;8.00;;;;;;;14.74;100.00;98514.66;5031233;28;20025;-72
2023/06/18 04:50:30;;;;;;;11.35;7.10;;;;;;;15.11;100.00;98517.94;5050297;28;20036;-75
2023/06/18 04:52:55;;;;;;;10.20;7.10;;;;;;;15.29;100.00;98509.59;5049932;28;20029;-76
2023/06/18 04:55:20;;;;;;;12.38;7.45;;;;;;;15.47;100.00;98511.31;5052409;28;20060;-75
2023/06/18 04:57:46;;;;;;;9.25;6.47;;;;;;;15.85;100.00;98518.09;5043136;28;20043;-75
2023/06/18 05:00:12;;;;;;;11.75;6.78;;;;;;;16.08;100.00;98516.31;5052868;28;20025;-75
2023/06/18 05:02:37;;;;;;;9.80;6.30;;;;;;;16.32;100.00;98523.28;5049359;28;20402;-74
2023/06/18 05:05:03;;;;;;;11.77;7.03;;;;;;;16.42;100.00;98517.97;5049606;28;20049;-74
2023/06/18 05:07:28;;;;;;;9.82;6.75;;;;;;;16.48;100.00;98516.19;5048837;28;20414;-75
2023/06/18 05:09:53;;;;;;;11.10;6.80;;;;;;;16.48;100.00;98507.13;5050769;28;20029;-77
2023/06/18 05:12:19;;;;;;;10.18;6.25;;;;;;;16.60;100.00;98507.88;5034517;28;20470;-75
2023/06/18 05:14:44;;;;;;;10.45;6.60;;;;;;;16.71;100.00;98496.03;5046711;28;20017;-74
2023/06/18 05:17:10;;;;;;;10.75;7.05;;;;;;;16.58;100.00;98489.03;5043591;28;20119;-76
2023/06/18 05:19:35;;;;;;;10.93;7.13;;;;;;;16.98;100.00;98512.56;5034067;28;20024;-76
2023/06/18 05:22:00;;;;;;;12.65;6.95;;;;;;;17.24;100.00;98523.88;5059364;28;20051;-76
2023/06/18 05:24:25;;;;;;;7.82;6.20;;;;;;;17.41;100.00;98513.66;5055246;28;20074;-77
2023/06/18 05:26:51;;;;;;;13.55;7.68;;;;;;;17.63;100.00;98515.56;5046759;28;20413;-75
2023/06/18 05:29:18;;;;;;;14.57;7.50;;;;;;;17.74;100.00;98509.97;5045094;28;20032;-77
2023/06/18 05:31:43;;;;;;;9.90;6.88;;;;;;;18.02;100.00;98507.25;5052104;28;20029;-76
2023/06/18 05:34:08;;;;;;;9.57;6.32;;;;;;;18.18;100.00;98512.63;5048027;28;20033;-77
2023/06/18 05:36:34;;;;;;;11.38;7.10;;;;;;;18.52;100.00;98501.41;5053277;28;20492;-78
2023/06/18 05:39:00;;;;;;;9.93;6.93;;;;;;;18.37;100.00;98507.56;5037881;28;20061;-78
2023/06/18 05:41:26;;;;;;;10.15;6.22;;;;;;;18.54;100.00;98514.81;5053662;28;20032;-80
2023/06/18 05:43:52;;;;;;;10.88;6.50;;;;;;;18.74;100.00;98517.72;5031684;28;20449;-77
2023/06/18 05:46:17;;;;;;;11.35;6.32;;;;;;;19.03;100.00;98515.44;5032735;28;20029;-76
2023/06/18 05:48:42;;;;;;;10.20;6.78;;;;;;;19.04;100.00;98527.25;5034756;28;20128;-76
2023/06/18 05:51:07;;;;;;;10.00;6.25;;;;;;;19.29;100.00;98518.34;5036875;28;20032;-77
2023/06/18 05:53:33;;;;;;;9.63;5.95;;;;;;;19.55;100.00;98521.19;5048633;28;20037;-76
2023/06/18 05:55:58;;;;;;;8.02;5.90;;;;;;;19.63;100.00;98518.75;5044376;28;20025;-75
2023/06/18 05:58:24;;;;;;;8.95;6.18;;;;;;;19.82;100.00;98529.25;5031440;28;20436;-76
2023/06/18 06:00:49;;;;;;;9.43;6.22;;;;;;;19.98;100.00;98521.88;5042877;28;20043;-74
2023/06/18 06:03:14;;;;;;;10.80;6.13;;;;;;;20.05;100.00;98514.22;5046562;23;20142;-73
2023/06/18 06:05:40;;;;;;;10.57;6.20;;;;;;;20.35;100.00;98530.72;5012035;28;20045;-72
2023/06/18 06:08:06;;;;;;;9.90;6.00;;;;;;;20.49;100.00;98508.22;5013764;28;20034;-72
2023/06/18 06:10:31;;;;;;;8.25;5.55;;;;;;;20.90;100.00;98521.91;5005745;28;20106;-72
2023/06/18 06:12:57;;;;;;;8.20;6.22;;;;;;;20.92;100.00;98517.78;5016080;28;20478;-73
2023/06/18 06:15:22;;;;;;;8.23;5.80;;;;;;;21.12;100.00;98513.38;5025309;28;20028;-71
2023/06/18 06:17:48;;;;;;;9.90;5.78;;;;;;;21.48;100.00;98525.06;5031326;28;20517;-71
2023/06/18 06:20:13;;;;;;;7.15;5.80;;;;;;;21.45;100.00;98526.47;5029338;28;20542;-70
2023/06/18 06:22:38;;;;;;;11.38;6.93;;;;;;;21.78;100.00;98509.53;5024679;28;20025;-71
2023/06/18 06:25:04;;;;;;;9.05;6.45;;;;;;;22.13;100.00;98525.00;5031999;28;20025;-71
2023/06/18 06:27:30;;;;;;;8.13;5.65;;;;;;;22.12;100.00;98508.78;5029479;28;20091;-71
2023/06/18 06:29:55;;;;;;;9.98;6.18;;;;;;;22.23;100.00;98513.94;5024680;28;20467;-71
2023/06/18 06:32:20;;;;;;;7.47;5.82;;;;;;;22.58;100.00;98511.19;5025476;28;20486;-71
2023/06/18 06:34:47;;;;;;;8.55;5.85;;;;;;;22.73;100.00;98520.16;5032075;28;20044;-71
2023/06/18 06:37:12;;;;;;;8.85;5.50;;;;;;;23.06;100.00;98520.41;5027217;28;20430;-71
2023/06/18 06:39:38;;;;;;;8.32;5.82;;;;;;;23.31;100.00;98524.00;5027890;28;20040;-71
2023/06/18 06:42:03;;;;;;;7.07;5.38;;;;;;;23.56;94.50;98514.59;5022496;28;20060;-71
2023/06/18 06:44:29;;;;;;;9.15;5.28;;;;;;;24.02;91.26;98527.81;5029946;28;20056;-71
2023/06/18 06:46:54;;;;;;;8.75;5.32;;;;;;;23.91;88.73;98509.75;5026977;28;20034;-72
2023/06/18 06:49:19;;;;;;;8.20;4.97;;;;;;;24.13;87.40;98515.50;5022127;28;20076;-72
2023/06/18 06:51:45;;;;;;;9.50;5.78;;;;;;;24.48;86.83;98527.16;5022475;28;20095;-71
2023/06/18 06:54:11;;;;;;;11.38;5.30;;;;;;;25.53;80.15;98518.31;5019410;28;20093;-72
2023/06/18 06:56:36;;;;;;;9.70;5.35;;;;;;;26.92;72.14;98510.41;5023540;28;20029;-72
2023/06/18 06:59:02;;;;;;;9.35;4.95;;;;;;;29.00;62.47;98507.13;5016446;28;20494;-72
2023/06/18 07:01:27;;;;;;;5.30;4.75;;;;;;;29.76;55.94;98525.06;5020189;28;20029;-71
2023/06/18 07:03:53;;;;;;;8.82;4.85;;;;;;;30.33;51.11;98522.53;5022704;28;20033;-72
2023/06/18 07:06:18;;;;;;;7.57;4.78;;;;;;;30.96;49.03;98511.28;5028162;28;20028;-71
2023/06/18 07:08:43;;;;;;;5.60;4.47;;;;;;;32.21;44.66;98508.97;5037076;28;20025;-72
2023/06/18 07:11:09;;;;;;;10.27;4.40;;;;;;;32.52;44.06;98508.31;5031068;28;20040;-72
2023/06/18 07:13:34;;;;;;;7.25;4.65;;;;;;;32.14;43.36;98514.34;5026221;28;20080;-72
2023/06/18 07:16:00;;;;;;;6.10;4.35;;;;;;;32.62;41.93;98507.00;5024001;28;20116;-72
2023/06/18 07:18:25;;;;;;;7.85;4.95;;;;;;;32.34;43.53;98522.94;5020388;28;20025;-72
2023/06/18 07:20:51;;;;;;;9.32;4.75;;;;;;;32.70;41.97;98508.81;5025326;28;20026;-72
2023/06/18 07:23:16;;;;;;;9.02;4.50;;;;;;;33.22;39.69;98512.59;5023762;28;20102;-71
2023/06/18 07:25:41;;;;;;;5.85;4.53;;;;;;;34.40;36.92;98525.84;5031268;28;20022;-71
2023/06/18 07:28:07;;;;;;;5.10;4.00;;;;;;;35.49;35.50;98508.66;5023798;28;20521;-72
2023/06/18 07:30:32;;;;;;;7.47;4.22;;;;;;;35.66;31.99;98512.16;5020172;28;20060;-71
2023/06/18 07:32:57;;;;;;;9.15;4.75;;;;;;;35.44;32.40;98516.63;5025562;28;20033;-71
2023/06/18 07:35:23;;;;;;;5.27;4.43;;;;;;;36.50;32.37;98510.16;5030423;28;20030;-71
2023/06/18 07:37:49;;;;;;;5.75;4.07;;;;;;;37.35;30.81;98513.13;5020032;28;20268;-71
2023/06/18 07:40:15;;;;;;;7.72;4.35;;;;;;;37.43;29.57;98511.19;5019948;28;20026;-72
2023/06/18 07:42:40;;;;;;;4.03;3.63;;;;;;;38.63;28.46;98518.03;5023602;28;20078;-71
2023/06/18 07:45:06;;;;;;;9.68;4.75;;;;;;;38.06;29.17;98510.06;5029961;28;20108;-71
2023/06/18 07:47:31;;;;;;;5.30;4.10;;;;;;;37.73;28.73;98511.03;5023942;28;20026;-71
2023/06/18 07:49:58;;;;;;;5.05;3.97;;;;;;;37.57;29.45;98510.50;5018741;28;20079;-71
2023/06/18 07:52:23;;;;;;;5.78;4.00;;;;;;;37.25;29.53;98499.72;5020076;28;20026;-71
2023/06/18 07:54:49;;;;;;;7.78;4.10;;;;;;;37.76;28.37;98515.09;5019681;28;20052;-71
2023/06/18 07:57:15;;;;;;;8.77;4.07;;;;;;;38.24;28.81;98500.88;5025354;28;20414;-71
2023/06/18 07:59:40;;;;;;;7.43;4.00;;;;;;;39.45;27.70;98509.72;5022062;28;20037;-72
2023/06/18 08:02:05;;;;;;;5.05;4.03;;;;;;;39.28;26.79;98516.19;5022273;28;20032;-71
2023/06/18 08:04:30;;;;;;;4.93;3.78;;;;;;;39.69;26.64;98504.44;5027988;28;20394;-71
2023/06/18 08:06:56;;;;;;;4.23;3.83;;;;;;;40.25;26.26;98508.44;5011455;28;20414;-71
2023/06/18 08:09:21;;;;;;;5.07;3.77;;;;;;;37.89;27.41;98500.25;5012603;28;20310;-72
2023/06/18 08:11:48;;;;;;;4.82;3.65;;;;;;;39.09;27.31;98497.53;5037627;28;20802;-72
2023/06/18 08:14:13;;;;;;;7.20;3.70;;;;;;;39.63;27.25;98491.94;5021432;28;20036;-71
2023/06/18 08:16:39;;;;;;;7.38;3.70;;;;;;;39.02;27.10;98508.88;5018090;28;20029;-72
2023/06/18 08:19:04;;;;;;;6.15;3.83;;;;;;;39.36;27.33;98494.38;5025118;28;20029;-71
2023/06/18 08:21:30;;;;;;;4.70;4.13;;;;;;;37.58;28.13;98493.19;5029606;28;20033;-71
2023/06/18 08:23:55;;;;;;;7.80;3.80;;;;;;;38.46;28.10;98494.13;5032171;28;20429;-72
2023/06/18 08:26:22;;;;;;;4.18;3.65;;;;;;;38.33;28.13;98495.66;5030852;28;20048;-71
2023/06/18 08:28:48;;;;;;;4.82;3.83;;;;;;;38.99;27.95;98493.50;5026331;28;20053;-71
2023/06/18 08:31:13;;;;;;;8.10;4.00;;;;;;;38.82;28.61;98485.75;5020124;28;20499;-71
2023/06/18 08:33:39;;;;;;;7.00;4.40;;;;;;;39.64;28.22;98482.22;5030009;28;20117;-71
2023/06/18 08:36:04;;;;;;;5.13;3.53;;;;;;;40.41;27.11;98478.81;5032598;28;20276;-71
2023/06/18 08:38:30;;;;;;;4.70;3.80;;;;;;;39.83;27.46;98478.97;5025896;28;20032;-71
2023/06/18 08:41:00;;;;;;;4.30;3.70;;;;;;;40.70;26.61;98479.50;5022503;28;20115;-71
2023/06/18 08:43:26;;;;;;;6.40;3.97;;;;;;;40.84;26.32;98482.25;5021877;28;20029;-71
2023/06/18 08:45:53;;;;;;;4.70;3.80;;;;;;;40.74;26.59;98481.13;5016250;28;20403;-71
2023/06/18 08:48:27;;;;;;;7.95;3.63;;;;;;;40.04;27.46;98483.78;5020981;28;20022;-72
2023/06/18 08:50:59;;;;;;;4.78;3.63;;;;;;;41.33;27.18;98482.34;5032476;28;20037;-72
2023/06/18 08:53:35;;;;;;;4.75;3.70;;;;;;;41.64;26.83;98479.66;5031649;28;20026;-72
2023/06/18 08:56:00;;;;;;;6.20;3.45;;;;;;;43.57;25.81;98477.13;5027031;28;20029;-72
2023/06/18 08:58:27;;;;;;;5.85;3.75;;;;;;;43.26;24.61;98474.41;5030120;28;20028;-72
2023/06/18 09:00:53;;;;;;;4.45;3.55;;;;;;;43.08;24.94;98473.88;5030506;28;20079;-73
2023/06/18 09:03:20;;;;;;;4.05;3.38;;;;;;;43.87;24.69;98489.66;5028957;28;20029;-73
2023/06/18 09:05:45;;;;;;;5.55;3.47;;;;;;;42.99;24.83;98471.53;5028560;28;20022;-72
2023/06/18 09:08:11;;;;;;;5.80;3.70;;;;;;;42.52;25.50;98471.38;5031053;28;20037;-72
2023/06/18 09:10:37;;;;;;;6.00;3.95;;;;;;;41.67;24.43;98470.31;5026121;28;20079;-72
2023/06/18 09:13:02;;;;;;;6.60;3.60;;;;;;;41.52;24.00;98478.94;5014909;28;20026;-72
2023/06/18 09:15:28;;;;;;;4.40;3.60;;;;;;;41.52;24.87;98470.44;5028732;28;20040;-72
2023/06/18 09:17:53;;;;;;;5.07;3.58;;;;;;;40.07;25.52;98463.13;5025356;28;20036;-72
2023/06/18 09:20:20;;;;;;;9.18;3.55;;;;;;;41.37;23.48;98466.06;5020403;28;20022;-72
2023/06/18 09:22:47;;;;;;;6.00;3.88;;;;;;;40.61;23.79;98470.59;5018812;28;20110;-72
2023/06/18 09:25:22;;;;;;;7.70;4.15;;;;;;;41.40;23.71;98465.25;5046842;28;20040;-73
2023/06/18 09:27:47;;;;;;;4.25;3.33;;;;;;;41.32;24.64;98470.19;5026398;28;20036;-72
2023/06/18 09:30:20;;;;;;;4.53;3.20;;;;;;;42.36;22.82;98443.56;5025160;28;20045;-71
2023/06/18 09:32:47;;;;;;;6.20;3.75;;;;;;;40.63;24.07;98457.63;5023329;28;20484;-72
2023/06/18 09:35:15;;;;;;;6.15;3.97;;;;;;;41.61;23.86;98452.91;5026500;28;20105;-72
2023/06/18 09:37:41;;;;;;;7.28;3.88;;;;;;;41.62;23.54;98450.88;5043906;28;20502;-72
2023/06/18 09:40:17;;;;;;;4.18;3.78;;;;;;;40.23;23.81;98440.00;5020318;28;20507;-73
2023/06/18 09:42:44;;;;;;;3.88;3.42;;;;;;;40.62;23.29;98461.69;5026627;28;20034;-72
2023/06/18 09:45:10;;;;;;;5.82;3.88;;;;;;;41.46;21.98;98446.53;5020053;28;20026;-72
2023/06/18 09:47:41;;;;;;;4.85;3.08;;;;;;;41.79;21.70;98452.69;5033244;28;20037;-71
2023/06/18 09:50:09;;;;;;;5.95;3.60;;;;;;;42.99;21.39;98447.97;5025464;28;20029;-72
2023/06/18 09:52:46;;;;;;;6.18;3.95;;;;;;;41.77;21.43;98446.66;5028741;28;20118;-71
2023/06/18 09:55:28;;;;;;;4.70;3.30;;;;;;;41.96;21.54;98450.94;5024294;28;20057;-73
2023/06/18 09:57:54;;;;;;;5.00;3.70;;;;;;;42.18;22.45;98432.38;5028548;28;20052;-72
2023/06/18 10:00:20;;;;;;;5.10;3.53;;;;;;;42.90;22.15;98429.41;5027162;28;20027;-72
2023/06/18 10:02:45;;;;;;;6.55;3.35;;;;;;;44.78;21.80;98436.03;5027943;28;20025;-73
2023/06/18 10:05:10;;;;;;;4.53;3.50;;;;;;;44.53;22.21;98428.03;5030605;28;20479;-72
2023/06/18 10:07:40;;;;;;;5.03;3.00;;;;;;;44.54;21.15;98426.78;5027857;28;20280;-73
2023/06/18 10:10:09;;;;;;;4.78;3.53;;;;;;;44.80;19.92;98424.97;5024908;28;20067;-72
2023/06/18 10:12:35;;;;;;;4.82;3.28;;;;;;;43.19;20.83;98434.66;5021151;28;20105;-72
2023/06/18 10:15:02;;;;;;;3.35;2.90;;;;;;;43.60;20.44;98425.00;5022947;28;20033;-72
2023/06/18 10:17:34;;;;;;;3.40;2.80;;;;;;;43.79;20.04;98428.31;5022667;28;20065;-71
2023/06/18 10:20:04;;;;;;;4.72;3.38;;;;;;;44.36;20.34;98430.00;5012604;28;20025;-72
2023/06/18 10:22:36;;;;;;;4.13;3.42;;;;;;;44.17;19.82;98418.16;5017046;28;20360;-71
2023/06/18 10:25:03;;;;;;;4.15;3.50;;;;;;;43.54;20.67;98421.81;5024945;28;20150;-72
2023/06/18 10:27:29;;;;;;;5.33;3.27;;;;;;;45.24;19.08;98414.94;5042255;28;20033;-71
2023/06/18 10:29:57;;;;;;;3.83;3.47;;;;;;;45.09;19.13;98407.16;5019407;28;20276;-72
2023/06/18 10:32:22;;;;;;;;;;;;;;;44.45;19.08;98415.97;5022442;28;20501;-72
2023/06/18 10:34:48;;;;;;;5.83;3.23;;;;;;;40.80;21.42;98418.28;5014596;28;19913;-72
2023/06/18 10:37:14;;;;;;;5.30;3.40;;;;;;;43.06;20.76;98408.00;5031190;28;20639;-72
2023/06/18 10:39:40;;;;;;;3.78;3.38;;;;;;;44.88;20.46;98409.28;5020213;28;20040;-71
2023/06/18 10:42:13;;;;;;;3.85;3.25;;;;;;;43.39;20.37;98411.09;5017781;28;20025;-72
2023/06/18 10:44:48;;;;;;;4.32;3.92;;;;;;;44.39;20.44;98401.44;5015104;28;20027;-72
2023/06/18 10:47:21;;;;;;;3.45;3.10;;;;;;;42.59;20.88;98405.84;5026263;28;20037;-71
2023/06/18 10:50:02;;;;;;;6.72;4.03;;;;;;;44.00;19.96;98402.25;5017520;28;20030;-72
2023/06/18 10:52:33;;;;;;;6.03;3.33;;;;;;;45.03;19.98;98395.47;5021325;28;20030;-72
2023/06/18 10:55:09;;;;;;;3.05;2.75;;;;;;;46.11;18.49;98399.13;5019749;28;20503;-73
2023/06/18 10:57:37;;;;;;;4.45;2.75;;;;;;;44.44;18.81;98390.72;5023579;28;20072;-72
2023/06/18 11:00:28;;;;;;;3.95;2.92;;;;;;;45.46;18.82;98386.63;5025751;28;20097;-72
2023/06/18 11:02:59;;;;;;;5.88;3.53;;;;;;;45.19;19.97;98391.81;5016339;28;20040;-72
2023/06/18 11:05:37;;;;;;;4.40;3.40;;;;;;;45.84;18.93;98388.84;5014573;28;20054;-73
2023/06/18 11:08:04;;;;;;;5.20;2.92;;;;;;;44.02;18.99;98376.97;5028534;28;20510;-72
2023/06/18 11:10:49;;;;;;;5.25;3.83;;;;;;;44.02;19.46;98388.38;5013823;28;20041;-72
2023/06/18 11:13:16;;;;;;;3.40;3.10;;;;;;;42.79;19.86;98382.44;5030225;28;20121;-71
2023/06/18 11:15:59;;;;;;;3.20;2.90;;;;;;;41.80;20.17;98380.47;5020559;28;20026;-71
2023/06/18 11:18:26;;;;;;;6.50;3.38;;;;;;;41.71;20.30;98378.13;5028457;28;20517;-71
2023/06/18 11:20:53;;;;;;;6.78;3.20;;;;;;;42.80;19.25;98372.66;5025993;28;20028;-72
2023/06/18 11:23:19;;;;;;;4.60;3.30;;;;;;;44.09;19.23;98353.19;5031470;28;20463;-71
2023/06/18 11:25:45;;;;;;;6.63;3.58;;;;;;;43.02;19.88;98367.41;5023153;28;20108;-71